Latest Weather Observations for Kalumburu

IDW60801

Issued at 8:33 pm WST Wednesday 29 June 2016 (issued every 30 minutes, with the page automatically refreshed every 10 minutes)

About weather observations | Map of weather stations | Latest weather observations for WA | Other Formats
Station Details ID: 001019 Name: KALUMBURU Lat: -14.30 Lon: 126.65 Height: 23.0 m
Data from the previous 72 hours. | See also: Recent months at Kalumburu
Date/Time
WST
Temp
°C
App
Temp
°C
Dew
Point
°C
Rel
Hum
%
Delta-T
°C
Wind Press
QNH
hPa
Press
MSL
hPa
Rain since
9am
mm
Dir  Spd
km/h
Gust
km/h
Spd
kts
Gust
kts
29/08:30pm 23.4 22.5 9.4 41 7.6 E 4 7 2 4 1017.1 1017.0 0.0
29/08:00pm 24.6 23.2 9.7 39 8.1 ENE 7 13 4 7 1016.7 1016.6 0.0
29/07:30pm 24.4 23.1 9.9 40 8.0 E 7 11 4 6 1016.3 1016.2 0.0
29/07:00pm 23.3 22.0 9.3 41 7.6 SE 6 7 3 4 1015.8 1015.7 0.0
29/06:30pm 23.8 22.6 9.4 40 7.8 ESE 6 7 3 4 1015.3 1015.2 0.0
29/06:00pm 25.1 23.9 9.4 37 8.6 E 6 7 3 4 1014.8 1014.7 0.0
29/05:30pm 27.3 25.7 8.2 30 10.3 ENE 6 9 3 5 1014.6 1014.5 0.0
29/05:00pm 29.0 26.9 8.1 27 11.4 E 9 13 5 7 1014.2 1014.1 0.0
29/04:30pm 30.4 28.6 9.3 27 11.8 ENE 9 19 5 10 1013.9 1013.8 0.0
29/04:00pm 30.9 28.1 8.6 25 12.4 E 13 20 7 11 1013.7 1013.6 0.0
29/03:30pm 31.7 29.2 9.8 26 12.4 E 13 20 7 11 1013.5 1013.4 0.0
29/03:00pm 32.0 29.4 9.5 25 12.7 E 13 26 7 14 1013.2 1013.1 0.0
29/02:30pm 32.9 30.6 10.3 25 13.0 E 13 20 7 11 1013.0 1012.9 0.0
29/02:00pm 32.2 29.1 10.3 26 12.6 E 17 35 9 19 1013.0 1012.9 0.0
29/01:30pm 32.1 28.8 9.6 25 12.8 E 17 30 9 16 1013.2 1013.1 0.0
29/01:00pm 32.2 29.1 10.3 26 12.6 ENE 17 26 9 14 1013.5 1013.4 0.0
29/12:30pm 31.8 28.4 10.5 27 12.2 E 19 28 10 15 1013.9 1013.8 0.0
29/12:00pm 31.7 28.6 10.4 27 12.2 ENE 17 28 9 15 1014.4 1014.3 0.0
29/11:30am 31.6 28.1 10.3 27 12.2 E 19 30 10 16 1015.1 1015.0 0.0
29/11:00am 31.1 27.7 10.4 28 11.8 E 19 30 10 16 1015.9 1015.8 0.0
29/10:30am 30.9 28.2 10.3 28 11.8 ENE 15 28 8 15 1016.4 1016.3 0.0
29/10:00am 29.6 25.8 9.7 29 11.2 ESE 20 35 11 19 1016.8 1016.7 0.0
29/09:30am 29.4 26.1 9.5 29 11.1 E 17 28 9 15 1016.8 1016.7 0.0
29/09:00am 28.7 25.4 9.4 30 10.7 E 17 28 9 15 1017.1 1017.0 0.0
29/08:30am 27.6 23.9 9.4 32 10.1 ESE 19 28 10 15 1017.2 1017.1 0.0
29/08:00am 26.7 22.7 9.1 33 9.6 ESE 20 33 11 18 1017.1 1017.0 0.0
29/07:30am 26.0 22.8 9.8 36 9.0 ESE 17 28 9 15 1017.0 1016.9 0.0
29/07:00am 25.0 23.1 10.5 40 8.1 SE 11 24 6 13 1016.6 1016.5 0.0
29/06:30am 22.7 22.3 11.1 48 6.4 S 4 9 2 5 1016.3 1016.2 0.0
29/06:00am 23.1 22.2 11.2 47 6.6 SSE 7 15 4 8 1015.9 1015.8 0.0
29/05:30am 23.1 21.9 11.5 48 6.5 SE 9 19 5 10 1015.7 1015.6 0.0
29/05:00am 22.7 22.1 12.3 52 5.9 SE 7 13 4 7 1015.4 1015.3 0.0
29/04:30am 20.4 20.7 13.4 64 4.0 SSE 4 7 2 4 1015.1 1015.0 0.0
29/04:00am 19.0 20.4 14.3 74 2.7 CALM 0 0 0 0 1015.0 1014.9 0.0
29/03:30am 18.5 20.0 14.6 78 2.3 CALM 0 0 0 0 1014.8 1014.7 0.0
29/03:00am 18.8 20.2 15.5 81 1.9 NW 2 6 1 3 1014.8 1014.7 0.0
29/02:30am 18.5 19.7 15.0 80 2.0 NW 2 6 1 3 1014.8 1014.7 0.0
29/02:00am 19.0 20.7 16.2 84 1.7 E 2 9 1 5 1015.0 1014.9 0.0
29/01:30am 18.2 19.2 15.3 83 1.7 SSW 4 7 2 4 1015.2 1015.1 0.0
29/01:00am 18.1 19.9 15.4 84 1.6 CALM 0 6 0 3 1015.4 1015.3 0.0
29/12:30am 18.9 20.2 16.1 84 1.7 SSE 4 7 2 4 1015.7 1015.6 0.0
29/12:00am 19.1 21.1 16.0 82 1.8 CALM 0 0 0 0 1016.0 1015.9 0.0
 
Date/Time
WST
Temp
°C
App
Temp
°C
Dew
Point
°C
Rel
Hum
%
Delta-T
°C
Wind Press
QNH
hPa
Press
MSL
hPa
Rain since
9am
mm
Dir  Spd
km/h
Gust
km/h
Spd
kts
Gust
kts
28/11:30pm 19.7 21.8 16.2 80 2.1 CALM 0 0 0 0 1016.0 1015.9 0.0
28/11:00pm 20.3 22.3 15.9 76 2.6 CALM 0 0 0 0 1016.0 1015.9 0.0
28/10:30pm 21.9 24.2 16.8 73 3.1 CALM 0 0 0 0 1016.1 1016.0 0.0
28/10:00pm 22.2 24.6 17.1 73 3.1 CALM 0 0 0 0 1016.2 1016.1 0.0
28/09:30pm 22.7 24.5 17.4 72 3.3 S 4 7 2 4 1016.3 1016.2 0.0
28/09:00pm 22.9 24.0 15.5 63 4.4 ENE 4 6 2 3 1016.1 1016.0 0.0
28/08:30pm 24.4 24.9 15.6 58 5.3 ENE 7 9 4 5 1016.1 1016.0 0.0
28/08:00pm 24.6 25.5 16.1 59 5.2 ENE 6 7 3 4 1016.0 1015.9 0.0
28/07:30pm 25.5 26.0 14.9 52 6.4 E 6 7 3 4 1015.9 1015.8 0.0
28/07:00pm 26.5 27.0 14.9 49 7.0 ENE 6 7 3 4 1015.6 1015.5 0.0
28/06:30pm 27.7 28.0 15.0 45 7.7 ENE 7 9 4 5 1015.1 1015.0 0.0
28/06:00pm 28.8 28.3 15.0 43 8.4 ENE 11 17 6 9 1014.7 1014.6 0.0
28/05:30pm 29.4 28.7 14.4 40 9.1 ENE 11 19 6 10 1014.2 1014.1 0.0
28/05:00pm 30.3 29.6 14.4 38 9.7 ENE 11 15 6 8 1013.6 1013.5 0.0
28/04:30pm 31.4 30.1 13.6 33 10.7 E 13 17 7 9 1013.2 1013.1 0.0
28/04:00pm 32.2 31.0 13.9 33 11.1 ENE 13 20 7 11 1012.7 1012.6 0.0
28/03:30pm 32.9 31.7 14.0 32 11.5 ENE 13 24 7 13 1012.4 1012.3 0.0
28/03:00pm 33.1 31.8 13.7 31 11.8 ENE 13 22 7 12 1012.3 1012.2 0.0
28/02:30pm 33.4 31.8 14.0 31 11.8 ENE 15 26 8 14 1012.3 1012.2 0.0
28/02:00pm 33.2 31.3 14.3 32 11.6 E 17 30 9 16 1012.4 1012.3 0.0
28/01:30pm 33.3 32.0 14.8 32 11.4 ENE 15 26 8 14 1012.5 1012.4 0.0
28/01:00pm 33.9 32.3 14.9 32 11.8 ENE 17 24 9 13 1012.9 1012.8 0.0
28/12:30pm 33.2 31.3 14.3 32 11.6 ENE 17 30 9 16 1013.2 1013.1 0.0
28/12:00pm 33.2 31.2 13.8 31 11.8 E 17 28 9 15 1013.4 1013.3 0.0
28/11:30am 33.2 31.6 12.8 29 12.2 E 13 20 7 11 1013.8 1013.7 0.0
28/11:00am 32.1 29.7 12.8 30 11.5 ESE 17 28 9 15 1014.4 1014.3 0.0
28/10:30am 31.8 29.6 12.1 30 11.6 E 15 26 8 14 1014.8 1014.7 0.0
28/10:00am 31.3 29.3 12.6 31 11.1 ESE 15 26 8 14 1015.1 1015.0 0.0
28/09:30am 29.8 26.4 11.3 32 10.7 ESE 20 32 11 17 1015.2 1015.1 0.0
28/09:00am 29.7 26.7 10.8 31 10.8 ESE 17 28 9 15 1015.2 1015.1 0.0
28/08:30am 28.7 25.5 9.9 31 10.6 ESE 17 28 9 15 1015.1 1015.0 0.0
28/08:00am 27.6 25.2 9.9 33 9.9 SE 13 24 7 13 1014.8 1014.7 0.0
28/07:30am 26.8 24.9 10.5 36 9.2 SE 11 24 6 13 1014.6 1014.5 0.0
28/07:00am 25.6 23.7 10.6 39 8.4 SE 11 20 6 11 1014.3 1014.2 0.0
28/06:30am 23.6 22.9 12.0 48 6.6 SSE 7 13 4 7 1013.9 1013.8 0.0
28/06:00am 21.7 21.2 12.0 54 5.4 S 6 13 3 7 1013.8 1013.7 0.0
28/05:30am 22.2 21.6 12.2 53 5.7 SSE 7 13 4 7 1013.3 1013.2 0.0
28/05:00am 20.3 20.8 12.8 62 4.2 SSE 2 7 1 4 1012.8 1012.7 0.0
28/04:30am 18.1 18.9 13.6 75 2.6 SSE 2 7 1 4 1012.7 1012.6 0.0
28/04:00am 18.1 19.3 13.8 76 2.5 CALM 0 0 0 0 1012.5 1012.4 0.0
28/03:30am 18.0 18.8 13.7 76 2.4 SSW 2 6 1 3 1012.4 1012.3 0.0
28/03:00am 18.2 18.2 13.7 75 2.6 SW 6 9 3 5 1012.4 1012.3 0.0
28/02:30am 18.3 18.4 13.8 75 2.6 S 6 9 3 5 1012.5 1012.4 0.0
28/02:00am 18.8 19.3 13.9 73 2.8 S 4 7 2 4 1012.6 1012.5 0.0
28/01:30am 20.4 20.4 14.3 68 3.5 S 7 9 4 5 1012.8 1012.7 0.0
28/01:00am 21.1 21.1 14.3 65 4.0 SSW 7 9 4 5 1013.2 1013.1 0.0
28/12:30am 21.7 22.0 14.4 63 4.3 S 6 11 3 6 1013.5 1013.4 0.0
28/12:00am 22.1 22.3 14.7 63 4.4 S 7 11 4 6 1013.7 1013.6 0.0
 
Date/Time
WST
Temp
°C
App
Temp
°C
Dew
Point
°C
Rel
Hum
%
Delta-T
°C
Wind Press
QNH
hPa
Press
MSL
hPa
Rain since
9am
mm
Dir  Spd
km/h
Gust
km/h
Spd
kts
Gust
kts
27/11:30pm 22.1 22.4 15.0 64 4.2 S 7 11 4 6 1013.9 1013.8 0.0
27/11:00pm 21.2 21.5 14.6 66 3.9 S 6 9 3 5 1014.1 1014.0 0.0
27/10:30pm 21.7 22.0 14.6 64 4.2 SE 6 7 3 4 1014.3 1014.2 0.0
27/10:00pm 22.5 23.7 13.8 58 5.1 CALM 0 6 0 3 1014.5 1014.4 0.0
27/09:30pm 23.4 24.2 13.6 54 5.7 E 2 9 1 5 1014.5 1014.4 0.0
27/09:00pm 23.5 23.4 13.4 53 5.9 ENE 6 7 3 4 1014.3 1014.2 0.0
27/08:30pm 23.7 24.4 13.3 52 6.0 E 2 7 1 4 1014.1 1014.0 0.0
27/08:00pm 24.3 24.9 13.2 50 6.4 E 2 6 1 3 1013.9 1013.8 0.0
27/07:30pm 25.3 25.2 13.2 47 7.1 E 6 7 3 4 1013.6 1013.5 0.0
27/07:00pm 26.0 25.7 12.8 44 7.7 E 6 7 3 4 1013.2 1013.1 0.0
27/06:30pm 26.7 26.4 12.7 42 8.2 E 6 7 3 4 1012.7 1012.6 0.0
27/06:00pm 27.0 26.6 12.3 40 8.5 E 6 7 3 4 1012.2 1012.1 0.0
27/05:30pm 29.6 28.7 11.2 32 10.6 ESE 7 11 4 6 1011.8 1011.7 0.0
27/05:00pm 31.6 29.8 10.9 28 12.0 E 11 17 6 9 1011.4 1011.3 0.0
27/04:30pm 32.7 31.4 11.3 27 12.5 ESE 9 17 5 9 1010.9 1010.8 0.0
27/04:00pm 33.5 31.3 10.8 25 13.2 ESE 13 24 7 13 1010.6 1010.5 0.0
27/03:30pm 34.1 31.9 10.7 24 13.6 E 13 22 7 12 1010.2 1010.1 0.0
27/03:00pm 34.4 31.9 10.9 24 13.8 E 15 26 8 14 1010.0 1009.9 0.0
27/02:30pm 34.9 32.5 11.3 24 13.9 E 15 28 8 15 1009.8 1009.7 0.0
27/02:00pm 35.0 32.6 11.4 24 14.0 ENE 15 22 8 12 1010.1 1010.0 0.0
27/01:30pm 34.6 31.7 11.1 24 13.8 E 17 26 9 14 1010.5 1010.4 0.0
27/01:00pm 34.9 33.4 12.0 25 13.7 ESE 11 24 6 13 1010.6 1010.5 0.0
27/12:30pm 34.3 32.3 11.4 25 13.5 E 13 24 7 13 1011.1 1011.0 0.0
27/12:00pm 33.9 31.6 11.7 26 13.1 ESE 15 26 8 14 1011.5 1011.4 0.0
27/11:30am 33.2 30.7 11.1 26 12.9 E 15 24 8 13 1012.1 1012.0 0.0
27/11:00am 32.9 29.9 12.0 28 12.4 ESE 19 28 10 15 1012.4 1012.3 0.0
27/10:30am 32.3 30.1 12.0 29 12.0 ESE 15 20 8 11 1012.8 1012.7 0.0
27/10:00am 31.6 29.1 12.4 31 11.4 SE 17 30 9 16 1012.9 1012.8 0.0
27/09:30am 31.6 30.2 13.4 33 10.9 ESE 13 20 7 11 1013.2 1013.1 0.0
27/09:00am 29.9 29.6 14.4 38 9.4 SSE 9 13 5 7 1013.5 1013.4 0.0
27/08:30am 28.1 29.0 16.7 50 7.1 S 7 11 4 6 1013.7 1013.6 0.0
27/08:00am 26.2 27.4 18.3 61 5.0 SSW 9 11 5 6 1013.9 1013.8 0.0
27/07:30am 23.9 26.0 19.4 76 2.9 S 7 9 4 5 1013.7 1013.6 0.0
27/07:00am 21.9 24.3 20.0 89 1.2 S 7 11 4 6 1013.4 1013.3 0.0
27/06:30am 19.5 21.2 18.0 91 0.9 SSW 6 7 3 4 1013.1 1013.0 0.0
27/06:00am 18.1 19.1 16.4 90 1.0 SE 6 7 3 4 1013.1 1013.0 0.0
27/05:30am 18.0 20.1 16.3 90 1.0 CALM 0 0 0 0 1012.7 1012.6 0.0
27/05:00am 18.3 20.5 16.6 90 1.0 CALM 0 0 0 0 1012.6 1012.5 0.0
27/04:30am 18.7 21.1 17.0 90 1.0 CALM 0 0 0 0 1012.4 1012.3 0.0
27/04:00am 18.8 21.2 17.1 90 1.0 CALM 0 0 0 0 1012.3 1012.2 0.0
27/03:30am 18.8 20.4 16.9 89 1.1 SSW 4 7 2 4 1012.2 1012.1 0.0
27/03:00am 19.1 20.4 17.1 88 1.2 SSE 6 7 3 4 1012.2 1012.1 0.0
27/02:30am 19.0 21.4 17.0 88 1.2 CALM 0 0 0 0 1012.1 1012.0 0.0
27/02:00am 19.3 21.8 17.3 88 1.2 CALM 0 0 0 0 1012.1 1012.0 0.0
27/01:30am 19.8 22.4 17.6 87 1.3 CALM 0 0 0 0 1012.3 1012.2 0.0
27/01:00am 20.5 23.5 18.4 88 1.3 CALM 0 0 0 0 1012.9 1012.8 0.0
27/12:30am 20.0 22.7 17.8 87 1.4 CALM 0 0 0 0 1013.2 1013.1 0.0
27/12:00am 20.3 23.0 17.7 85 1.6 CALM 0 0 0 0 1013.2 1013.1 0.0
 
Date/Time
WST
Temp
°C
App
Temp
°C
Dew
Point
°C
Rel
Hum
%
Delta-T
°C
Wind Press
QNH
hPa
Press
MSL
hPa
Rain since
9am
mm
Dir  Spd
km/h
Gust
km/h
Spd
kts
Gust
kts
26/11:30pm 20.8 23.7 18.2 85 1.6 CALM 0 6 0 3 1013.2 1013.1 0.0
26/11:00pm 21.0 23.9 18.2 84 1.7 CALM 0 0 0 0 1013.2 1013.1 0.0
26/10:30pm 21.6 24.4 18.0 80 2.2 CALM 0 0 0 0 1013.2 1013.1 0.0
26/10:00pm 22.6 25.7 18.6 78 2.5 CALM 0 0 0 0 1013.3 1013.2 0.0
26/09:30pm 22.8 26.0 18.8 78 2.5 CALM 0 0 0 0 1013.2 1013.1 0.0
26/09:00pm 23.5 25.8 18.6 74 3.1 NNE 4 7 2 4 1013.1 1013.0 0.0

Other Formats:

Comma delimited format used in spreadsheet applications
http://www.bom.gov.au/fwo/IDW60801/IDW60801.94100.axf

JavaScript Object Notation format (JSON) in row-major order
http://www.bom.gov.au/fwo/IDW60801/IDW60801.94100.json